This is the latest recevied weather packets stored in our database for station/object DB0ROB-10. If no packets are shown the sender has not sent any weather packets the latest 10 day(s).
| Time | Temp. | Humidity | Pressure | Rain* | Wind** | Luminosity | Snow |
|---|---|---|---|---|---|---|---|
| 1778019397 | 9.44° C | 80% | 1009 hPa | - | - | - | - |
| 1778018497 | 9.44° C | 83% | 1009.1 hPa | - | - | - | - |
| 1778017597 | 9.44° C | 83% | 1009.1 hPa | - | - | - | - |
| 1778016696 | 10° C | 80% | 1009.3 hPa | - | - | - | - |
| 1778015796 | 10° C | 80% | 1009.2 hPa | - | - | - | - |
| 1778014896 | 10° C | 78% | 1009.3 hPa | - | - | - | - |
| 1778013995 | 10° C | 80% | 1009.3 hPa | - | - | - | - |
| 1778013095 | 10.56° C | 78% | 1009.1 hPa | - | - | - | - |
| 1778012195 | 10° C | 80% | 1009 hPa | - | - | - | - |
| 1778011295 | 10° C | 80% | 1008.8 hPa | - | - | - | - |
| 1778010401 | 10.56° C | 78% | 1008.6 hPa | - | - | - | - |
| 1778009501 | 10.56° C | 76% | 1008.7 hPa | - | - | - | - |
| 1778008601 | 11.11° C | 77% | 1008.7 hPa | - | - | - | - |
| 1778007700 | 10.56° C | 76% | 1008.3 hPa | - | - | - | - |
| 1778006800 | 11.11° C | 77% | 1008.3 hPa | - | - | - | - |
| 1778005899 | 11.11° C | 78% | 1008.3 hPa | - | - | - | - |
| 1778004999 | 10.56° C | 82% | 1008.4 hPa | - | - | - | - |
| 1778004099 | 11.11° C | 80% | 1008.3 hPa | - | - | - | - |
| 1778003198 | 12.22° C | 82% | 1008.5 hPa | - | - | - | - |
| 1778002298 | 12.22° C | 83% | 1008.4 hPa | - | - | - | - |
| 1778001398 | 12.22° C | 84% | 1008.4 hPa | - | - | - | - |
| 1778000497 | 11.67° C | 85% | 1008.5 hPa | - | - | - | - |
| 1777999597 | 13.89° C | 76% | 1008.6 hPa | - | - | - | - |
| 1777998697 | 16.67° C | 64% | 1008.1 hPa | - | - | - | - |
| 1777997796 | 16.67° C | 63% | 1007.8 hPa | - | - | - | - |
* Rain since midnight (hover to see other rain measurements)
** Current wind speed in m/s (hover to see current wind gust speed)